Armington, Montana
Current Conditions -  °F | °C
As of 11:56 AM on Thursday 18 Dec 2014 (Local Time) from KGFA Reporting Station
Broken Clouds Broken Clouds  
Wind Chill: 28°   Ceiling: 12000
Heat Index: 37°   Visibility: 10mi
Dew Point: 28°   Wind: 14mph
Humidity: 69%   Direction: 230°SW
Pressure: 29.92"   Gusts: NA
Location:  47.3298°N, 110.893°W
Report Text: KGFA 181856Z AUTO 23012KT 10SM FEW075 BKN120 03/M02 A2992 RMK AO2 SLP163 T00281024
Loading
Personal Weather Stations






























Interactive Weather Map New forecast layout! Learn more

10-Day Weather Forecast

Advertisements
Track Severe Weather on mobile